Time;durP1;ratioP1;P1;durP2;ratioP2;P2;SDS_P1;SDS_P2;PMS_P1;PMS_P2;Temp;Humidity;BMP_temperature;BMP_pressure;BME280_temperature;BME280_humidity;BME280_pressure;Samples;Min_cycle;Max_cycle;Signal;HPM_P1;HPM_P2
2023/07/05 00:00:23;;;;;;;11.40;9.80;;;;;;;18.75;100.00;98810.63;109488;1251;59286;-76
2023/07/05 00:03:10;;;;;;;14.60;10.80;;;;;;;18.69;100.00;98813.25;109500;1251;75876;-77
2023/07/05 00:05:37;;;;;;;11.20;10.00;;;;;;;18.61;100.00;98813.67;109470;1251;59140;-76
2023/07/05 00:08:05;;;;;;;11.40;10.00;;;;;;;18.52;100.00;98812.84;109532;1251;59001;-76
2023/07/05 00:10:32;;;;;;;11.60;10.40;;;;;;;18.45;100.00;98809.16;109476;1252;66070;-76
2023/07/05 00:13:01;;;;;;;15.00;10.70;;;;;;;18.41;100.00;98812.86;109517;1253;59443;-77
2023/07/05 00:15:30;;;;;;;13.60;10.80;;;;;;;18.30;100.00;98812.67;109504;1251;62950;-76
2023/07/05 00:17:57;;;;;;;14.40;11.50;;;;;;;18.19;100.00;98812.39;109491;1252;58970;-77
2023/07/05 00:20:24;;;;;;;14.20;11.40;;;;;;;18.14;100.00;98813.08;109485;1251;58979;-78
2023/07/05 00:22:52;;;;;;;13.00;11.10;;;;;;;18.12;100.00;98813.23;109561;1251;65858;-77
2023/07/05 00:25:19;;;;;;;14.20;11.30;;;;;;;18.10;100.00;98814.59;109549;1251;60098;-76
2023/07/05 00:27:45;;;;;;;14.10;11.70;;;;;;;18.05;100.00;98812.33;109468;1251;62847;-76
2023/07/05 00:30:12;;;;;;;16.40;11.60;;;;;;;18.05;100.00;98809.94;109513;1251;59195;-76
2023/07/05 00:32:39;;;;;;;13.10;11.70;;;;;;;18.03;100.00;98808.64;109285;1251;59492;-75
2023/07/05 00:35:06;;;;;;;14.40;11.80;;;;;;;18.02;100.00;98809.50;109535;1251;59457;-76
2023/07/05 00:37:32;;;;;;;15.60;12.50;;;;;;;17.96;100.00;98806.91;109573;1251;59003;-77
2023/07/05 00:39:59;;;;;;;16.00;13.00;;;;;;;17.86;100.00;98802.21;109495;1251;64522;-76
2023/07/05 00:42:25;;;;;;;15.30;12.30;;;;;;;17.73;100.00;98802.93;109246;1251;59375;-76
2023/07/05 00:45:18;;;;;;;16.00;13.00;;;;;;;17.64;100.00;98800.13;109542;1255;58952;-76
2023/07/05 00:47:46;;;;;;;19.10;15.40;;;;;;;17.60;100.00;98796.70;109518;1251;65805;-76
2023/07/05 00:50:21;;;;;;;17.80;14.10;;;;;;;17.61;100.00;98794.30;109500;1253;59907;-76
2023/07/05 00:52:48;;;;;;;17.90;14.80;;;;;;;17.61;100.00;98794.47;109483;1251;62815;-76
2023/07/05 00:55:17;;;;;;;18.20;13.90;;;;;;;17.62;100.00;98795.80;109476;1251;58970;-77
2023/07/05 00:57:45;;;;;;;16.50;14.30;;;;;;;17.61;100.00;98796.79;109479;1251;58971;-77
2023/07/05 01:00:16;;;;;;;16.10;13.90;;;;;;;17.56;100.00;98795.60;109515;1251;66046;-77
2023/07/05 01:02:47;;;;;;;17.30;14.10;;;;;;;17.51;100.00;98791.27;109530;1251;59045;-76
2023/07/05 01:05:13;;;;;;;14.80;13.10;;;;;;;17.48;100.00;98786.91;109478;1251;64506;-77
2023/07/05 01:07:40;;;;;;;18.20;13.20;;;;;;;17.46;100.00;98783.34;109482;1251;58968;-77
2023/07/05 01:10:16;;;;;;;13.30;11.50;;;;;;;17.43;100.00;98784.17;109501;1253;58989;-76
2023/07/05 01:12:50;;;;;;;15.80;13.00;;;;;;;17.39;100.00;98782.45;109496;1251;64661;-77
2023/07/05 01:15:28;;;;;;;17.60;13.00;;;;;;;17.35;100.00;98785.02;109524;1253;59828;-76
2023/07/05 01:18:03;;;;;;;16.30;12.90;;;;;;;17.32;100.00;98787.26;109302;1251;64121;-76
2023/07/05 01:20:55;;;;;;;15.10;11.80;;;;;;;17.28;100.00;98782.09;109501;1251;59051;-77
2023/07/05 01:23:40;;;;;;;13.40;11.70;;;;;;;17.24;100.00;98777.23;108958;1259;59033;-76
2023/07/05 01:26:24;;;;;;;15.30;10.60;;;;;;;17.21;100.00;98775.98;108953;1259;66189;-77
2023/07/05 01:29:36;;;;;;;15.80;12.60;;;;;;;17.16;100.00;98778.38;108940;1259;60251;-78
2023/07/05 01:32:20;;;;;;;14.40;12.30;;;;;;;17.10;100.00;98785.95;108556;1265;63790;-77
2023/07/05 01:34:55;;;;;;;13.40;11.60;;;;;;;17.02;100.00;98778.54;108578;1265;59072;-76
2023/07/05 01:37:32;;;;;;;14.10;11.90;;;;;;;16.98;100.00;98776.90;108581;1265;59151;-77
2023/07/05 01:39:58;;;;;;;14.80;12.30;;;;;;;16.98;100.00;98776.39;108602;1265;64885;-77
2023/07/05 01:42:31;;;;;;;15.30;12.80;;;;;;;16.98;100.00;98774.98;108611;1265;60208;-77
2023/07/05 01:44:58;;;;;;;15.30;12.00;;;;;;;16.98;100.00;98776.55;108594;1265;63774;-76
2023/07/05 01:47:45;;;;;;;14.30;12.70;;;;;;;16.98;100.00;98775.50;108603;1265;59033;-76
2023/07/05 01:50:52;;;;;;;14.40;12.40;;;;;;;16.97;100.00;98778.65;108610;1265;59040;-78
2023/07/05 01:53:33;;;;;;;13.10;11.70;;;;;;;16.93;100.00;98785.13;108093;1271;65960;-75
2023/07/05 01:56:07;;;;;;;13.80;11.20;;;;;;;16.88;100.00;98780.18;108113;1270;60243;-76
2023/07/05 01:58:41;;;;;;;12.20;10.90;;;;;;;16.87;100.00;98782.25;108088;1271;63894;-76
2023/07/05 02:01:11;;;;;;;14.50;11.10;;;;;;;16.86;100.00;98781.33;108465;1264;59142;-75
2023/07/05 02:03:39;;;;;;;14.90;12.40;;;;;;;16.86;100.00;98779.20;108706;1264;59133;-76
2023/07/05 02:06:07;;;;;;;13.20;11.70;;;;;;;16.85;100.00;98778.55;108615;1266;64555;-76
2023/07/05 02:08:42;;;;;;;12.80;10.50;;;;;;;16.84;100.00;98775.58;108751;1262;60322;-76
2023/07/05 02:11:09;;;;;;;15.30;11.10;;;;;;;16.83;100.00;98778.88;108851;1260;63840;-76
2023/07/05 02:13:35;;;;;;;12.60;11.20;;;;;;;16.82;100.00;98777.17;108848;1260;58952;-76
2023/07/05 02:16:02;;;;;;;16.30;11.90;;;;;;;16.81;100.00;98777.97;108904;1260;59029;-76
2023/07/05 02:18:29;;;;;;;13.30;11.80;;;;;;;16.82;100.00;98775.05;108831;1261;64772;-76
2023/07/05 02:20:56;;;;;;;12.50;10.10;;;;;;;16.83;100.00;98775.33;108860;1261;59069;-76
2023/07/05 02:23:23;;;;;;;13.30;10.90;;;;;;;16.85;100.00;98777.84;108839;1260;62947;-75
2023/07/05 02:25:50;;;;;;;13.80;12.00;;;;;;;16.85;100.00;98778.89;108840;1261;59070;-76
2023/07/05 02:28:17;;;;;;;13.60;12.30;;;;;;;16.84;100.00;98778.68;108792;1260;59490;-76
2023/07/05 02:30:44;;;;;;;13.90;12.50;;;;;;;16.82;100.00;98775.02;109299;1251;64829;-76
2023/07/05 02:33:10;;;;;;;14.80;12.90;;;;;;;16.81;100.00;98776.02;109537;1251;59174;-76
2023/07/05 02:35:39;;;;;;;13.10;11.70;;;;;;;16.80;100.00;98776.85;109481;1251;64132;-75
2023/07/05 02:38:06;;;;;;;12.80;10.60;;;;;;;16.79;100.00;98777.69;109500;1251;59017;-76
2023/07/05 02:40:33;;;;;;;12.00;9.20;;;;;;;16.76;100.00;98773.45;109469;1251;58944;-77
2023/07/05 02:43:00;;;;;;;11.50;9.40;;;;;;;16.71;100.00;98776.98;109495;1251;64949;-76
2023/07/05 02:45:27;;;;;;;12.60;9.90;;;;;;;16.67;100.00;98782.35;109501;1256;59090;-76
2023/07/05 02:47:54;;;;;;;12.10;10.00;;;;;;;16.65;100.00;98779.10;109504;1251;62515;-77
2023/07/05 02:50:21;;;;;;;10.90;9.90;;;;;;;16.64;100.00;98780.69;109469;1251;59011;-76
2023/07/05 02:52:47;;;;;;;10.40;9.30;;;;;;;16.61;100.00;98783.80;109523;1251;59071;-75
2023/07/05 02:55:14;;;;;;;10.60;9.30;;;;;;;16.59;100.00;98783.02;109560;1251;58873;-76
2023/07/05 02:57:40;;;;;;;12.50;11.20;;;;;;;16.57;100.00;98786.92;109479;1251;58977;-76
2023/07/05 03:00:07;;;;;;;14.70;11.40;;;;;;;16.56;100.00;98786.48;109525;1251;64084;-77
2023/07/05 03:02:34;;;;;;;13.70;11.10;;;;;;;16.59;100.00;98784.26;109472;1251;59025;-76
2023/07/05 03:05:12;;;;;;;13.10;11.50;;;;;;;16.64;100.00;98786.95;109539;1251;58983;-76
2023/07/05 03:07:38;;;;;;;14.90;11.80;;;;;;;16.71;100.00;98788.86;109478;1251;65733;-76
2023/07/05 03:10:05;;;;;;;14.00;10.10;;;;;;;16.79;100.00;98783.98;109460;1251;60128;-76
2023/07/05 03:12:32;;;;;;;13.00;10.60;;;;;;;16.89;100.00;98781.59;109495;1251;62939;-75
2023/07/05 03:14:59;;;;;;;13.90;10.30;;;;;;;16.98;100.00;98782.10;109463;1251;59000;-75
2023/07/05 03:17:25;;;;;;;11.90;10.30;;;;;;;17.06;100.00;98778.06;109594;1251;58947;-76
2023/07/05 03:19:54;;;;;;;13.00;10.10;;;;;;;17.16;100.00;98775.58;109515;1251;59399;-75
2023/07/05 03:22:20;;;;;;;11.50;9.90;;;;;;;17.26;100.00;98776.69;109363;1251;59002;-76
2023/07/05 03:24:50;;;;;;;14.00;10.70;;;;;;;17.35;100.00;98778.73;109488;1251;59133;-75
2023/07/05 03:27:17;;;;;;;;;;;;;;;17.43;100.00;98779.01;109528;1251;59047;-75
2023/07/05 03:29:43;;;;;;;11.30;9.60;;;;;;;17.50;100.00;98782.20;109483;1251;59219;-76
2023/07/05 03:32:10;;;;;;;10.60;9.20;;;;;;;17.93;100.00;98782.63;109469;1251;64855;-76
2023/07/05 03:34:36;;;;;;;13.00;9.90;;;;;;;18.62;100.00;98781.90;109530;1251;59060;-76
2023/07/05 03:37:03;;;;;;;10.60;9.50;;;;;;;19.28;100.00;98780.56;109297;1254;59214;-77
2023/07/05 03:39:29;;;;;;;11.20;9.00;;;;;;;19.88;100.00;98777.52;109467;1251;59062;-77
2023/07/05 03:41:56;;;;;;;10.70;9.00;;;;;;;20.48;100.00;98771.33;109522;1251;58901;-76
2023/07/05 03:44:24;;;;;;;11.30;9.40;;;;;;;21.18;100.00;98768.77;109532;1251;59533;-76
2023/07/05 03:46:51;;;;;;;10.40;8.20;;;;;;;21.81;100.00;98769.52;109567;1251;59918;-76
2023/07/05 03:49:17;;;;;;;9.20;7.50;;;;;;;22.39;100.00;98767.13;109366;1251;62891;-76
2023/07/05 03:51:44;;;;;;;8.90;8.00;;;;;;;22.93;100.00;98762.48;109523;1251;59017;-77
2023/07/05 03:54:10;;;;;;;8.80;8.00;;;;;;;23.46;97.97;98758.11;109557;1251;58973;-76
2023/07/05 03:56:37;;;;;;;10.60;7.50;;;;;;;23.98;93.91;98755.39;109533;1251;64585;-76
2023/07/05 03:59:04;;;;;;;8.10;7.30;;;;;;;24.44;89.66;98755.70;109551;1251;60614;-76
2023/07/05 04:01:31;;;;;;;9.60;7.30;;;;;;;24.88;85.60;98758.06;109488;1251;62873;-77
2023/07/05 04:04:00;;;;;;;7.40;6.70;;;;;;;25.33;82.62;98755.98;109566;1251;58951;-77
2023/07/05 04:06:32;;;;;;;7.20;6.50;;;;;;;25.78;79.29;98757.92;109512;1251;59381;-76
2023/07/05 04:08:59;;;;;;;6.20;5.60;;;;;;;26.25;76.36;98754.86;109554;1251;65053;-78
2023/07/05 04:11:26;;;;;;;7.00;6.30;;;;;;;26.68;73.88;98754.36;109581;1251;60660;-77
2023/07/05 04:13:54;;;;;;;7.10;6.30;;;;;;;27.07;71.75;98755.84;109505;1251;65331;-79
2023/07/05 04:16:24;;;;;;;8.30;6.80;;;;;;;27.49;70.07;98761.81;109584;1251;58965;-78
2023/07/05 04:18:53;;;;;;;7.00;6.10;;;;;;;27.99;68.26;98761.81;109535;1251;59103;-78
2023/07/05 04:21:20;;;;;;;6.70;6.00;;;;;;;28.30;65.75;98762.94;109537;1251;66463;-79
2023/07/05 04:23:46;;;;;;;8.40;6.50;;;;;;;28.40;64.16;98762.23;109330;1251;59769;-79
2023/07/05 04:26:22;;;;;;;7.70;6.70;;;;;;;28.56;62.71;98766.51;109428;1251;62748;-79
2023/07/05 04:28:49;;;;;;;7.60;6.20;;;;;;;28.72;61.74;98763.95;109416;1251;59270;-79
2023/07/05 04:31:19;;;;;;;8.50;6.30;;;;;;;29.10;61.00;98767.05;109492;1251;59024;-78
2023/07/05 04:33:46;;;;;;;6.90;6.10;;;;;;;29.46;59.51;98767.52;109437;1251;65763;-80
2023/07/05 04:36:12;;;;;;;6.80;6.10;;;;;;;29.42;58.06;98768.02;109478;1251;59957;-78
2023/07/05 04:38:39;;;;;;;7.60;6.90;;;;;;;29.53;57.60;98771.86;109526;1251;64119;-78
2023/07/05 04:41:05;;;;;;;6.70;5.80;;;;;;;29.82;56.67;98770.58;109469;1251;59065;-78
2023/07/05 04:43:32;;;;;;;6.80;6.20;;;;;;;29.98;55.54;98766.02;109482;1251;59040;-79
2023/07/05 04:46:00;;;;;;;6.30;5.70;;;;;;;30.17;55.03;98764.10;109532;1251;64480;-79
2023/07/05 04:48:29;;;;;;;6.60;6.00;;;;;;;30.40;54.23;98766.58;109495;1251;59839;-78
2023/07/05 04:50:57;;;;;;;7.50;6.00;;;;;;;30.62;53.51;98771.30;109476;1251;63773;-78
2023/07/05 04:53:28;;;;;;;7.10;6.00;;;;;;;30.82;52.86;98772.11;109530;1251;59000;-78
2023/07/05 04:55:57;;;;;;;9.40;6.20;;;;;;;30.90;51.80;98772.80;109463;1251;59044;-78
2023/07/05 04:58:25;;;;;;;7.00;6.30;;;;;;;30.94;51.23;98773.88;109485;1251;65830;-78
2023/07/05 05:00:52;;;;;;;7.00;6.20;;;;;;;31.02;50.84;98774.89;109486;1251;60347;-78
2023/07/05 05:03:21;;;;;;;7.20;6.30;;;;;;;31.10;50.49;98775.61;109510;1251;64093;-78
2023/07/05 05:05:51;;;;;;;7.10;6.30;;;;;;;31.23;50.19;98777.00;109485;1251;59015;-78
2023/07/05 05:08:19;;;;;;;7.10;6.20;;;;;;;31.41;49.74;98777.13;109515;1251;59046;-79
2023/07/05 05:10:52;;;;;;;9.40;6.00;;;;;;;31.70;49.09;98775.37;109285;1251;66057;-79
2023/07/05 05:13:20;;;;;;;6.60;6.00;;;;;;;31.84;48.12;98773.89;109502;1251;59079;-79
2023/07/05 05:15:47;;;;;;;8.80;6.40;;;;;;;31.82;48.05;98774.77;109521;1251;64177;-79
2023/07/05 05:18:14;;;;;;;7.50;6.70;;;;;;;31.67;47.59;98777.00;109479;1251;59069;-79
2023/07/05 05:20:41;;;;;;;7.40;6.30;;;;;;;31.54;47.71;98776.73;109523;1251;58951;-79
2023/07/05 05:23:08;;;;;;;7.40;6.30;;;;;;;31.48;47.81;98779.27;109519;1251;64781;-79
2023/07/05 05:25:35;;;;;;;8.80;6.90;;;;;;;31.65;47.25;98782.59;109445;1251;60070;-79
2023/07/05 05:28:02;;;;;;;7.50;6.70;;;;;;;31.80;46.42;98782.16;109511;1251;64100;-80
2023/07/05 05:30:31;;;;;;;7.90;6.80;;;;;;;31.80;45.98;98776.59;109465;1251;58945;-78
2023/07/05 05:32:57;;;;;;;8.20;7.40;;;;;;;31.77;45.64;98776.50;109540;1251;59050;-79
2023/07/05 05:35:24;;;;;;;7.30;6.50;;;;;;;31.69;45.28;98775.02;109498;1251;64794;-78
2023/07/05 05:37:50;;;;;;;7.80;7.00;;;;;;;31.54;45.18;98776.73;109499;1251;59352;-78
2023/07/05 05:40:17;;;;;;;8.40;6.90;;;;;;;31.49;45.63;98777.31;109517;1251;64128;-79
2023/07/05 05:42:44;;;;;;;8.20;6.10;;;;;;;31.62;45.29;98777.78;109519;1251;58982;-79
2023/07/05 05:45:11;;;;;;;7.00;6.00;;;;;;;31.70;45.08;98776.30;109512;1251;59113;-79
2023/07/05 05:47:38;;;;;;;9.10;6.70;;;;;;;31.77;45.03;98773.52;109507;1251;64504;-79
2023/07/05 05:50:05;;;;;;;7.60;6.90;;;;;;;31.80;44.64;98776.89;109543;1251;59065;-78
2023/07/05 05:52:33;;;;;;;7.90;7.00;;;;;;;31.87;44.61;98777.58;109657;1251;64176;-79
2023/07/05 05:55:01;;;;;;;9.00;6.90;;;;;;;31.89;44.51;98774.96;109513;1251;59076;-79
2023/07/05 05:57:27;;;;;;;7.70;6.40;;;;;;;31.88;44.92;98770.80;109496;1251;59980;-78
2023/07/05 05:59:54;;;;;;;6.70;6.00;;;;;;;31.85;44.82;98771.69;109497;1251;58907;-78
2023/07/05 06:02:21;;;;;;;6.60;6.00;;;;;;;31.87;44.21;98768.35;109565;1251;60357;-79
2023/07/05 06:04:47;;;;;;;7.00;6.20;;;;;;;31.73;44.24;98769.54;109496;1251;63918;-78
2023/07/05 06:07:14;;;;;;;9.90;6.30;;;;;;;31.63;44.50;98764.37;109484;1251;58976;-79
2023/07/05 06:09:46;;;;;;;8.40;6.30;;;;;;;31.71;44.83;98763.48;109376;1251;58898;-78
2023/07/05 06:12:15;;;;;;;7.30;5.80;;;;;;;31.82;44.76;98767.65;109517;1251;64832;-79
2023/07/05 06:14:42;;;;;;;8.30;6.00;;;;;;;31.91;44.85;98766.73;109538;1251;58997;-79
2023/07/05 06:17:09;;;;;;;8.30;6.50;;;;;;;32.00;44.35;98764.92;109316;1251;64181;-79
2023/07/05 06:19:35;;;;;;;7.70;5.70;;;;;;;32.18;44.19;98761.29;109516;1251;59066;-79
2023/07/05 06:22:02;;;;;;;8.70;6.50;;;;;;;32.23;43.71;98764.09;109302;1251;59055;-79
2023/07/05 06:24:31;;;;;;;6.70;5.60;;;;;;;32.17;43.90;98763.58;109504;1251;64478;-79
2023/07/05 06:26:58;;;;;;;;;;;;;;;32.23;43.99;98765.19;109487;1251;59865;-79
2023/07/05 06:29:25;;;;;;;7.90;6.50;;;;;;;32.21;43.72;98765.92;109113;1251;63916;-78
2023/07/05 06:31:51;;;;;;;7.20;6.50;;;;;;;32.11;44.24;98763.64;109485;1251;59020;-78
2023/07/05 06:34:18;;;;;;;8.00;5.90;;;;;;;32.08;44.48;98764.75;109512;1251;58988;-79
2023/07/05 06:36:44;;;;;;;6.70;6.00;;;;;;;32.26;44.32;98766.44;109564;1251;67008;-79
2023/07/05 06:39:11;;;;;;;9.20;6.60;;;;;;;32.38;44.42;98767.92;109558;1251;59066;-78
2023/07/05 06:41:37;;;;;;;10.00;6.30;;;;;;;32.36;44.18;98770.30;109475;1251;59272;-78
2023/07/05 06:44:04;;;;;;;9.20;6.80;;;;;;;32.38;44.34;98768.46;109479;1251;58980;-78
2023/07/05 06:46:31;;;;;;;9.20;7.30;;;;;;;32.42;44.48;98765.06;109523;1251;58921;-79
2023/07/05 06:48:58;;;;;;;8.20;6.70;;;;;;;32.45;44.38;98762.80;109503;1251;66737;-79
2023/07/05 06:51:25;;;;;;;7.90;7.10;;;;;;;32.47;44.51;98762.34;109565;1251;60335;-79
2023/07/05 06:53:51;;;;;;;7.10;6.40;;;;;;;32.46;44.53;98761.04;109373;1251;64572;-79
2023/07/05 06:56:18;;;;;;;7.60;6.30;;;;;;;32.46;44.84;98763.88;109496;1251;58940;-79
2023/07/05 06:58:46;;;;;;;10.20;7.00;;;;;;;32.51;44.64;98758.13;109513;1251;58971;-79
2023/07/05 07:01:12;;;;;;;9.70;6.70;;;;;;;32.33;44.44;98757.52;109549;1251;64823;-79
2023/07/05 07:03:39;;;;;;;8.00;6.50;;;;;;;32.25;44.96;98758.05;109530;1251;59037;-79
2023/07/05 07:06:06;;;;;;;7.20;6.40;;;;;;;32.23;45.12;98752.89;109513;1251;64523;-79
2023/07/05 07:08:34;;;;;;;9.00;7.30;;;;;;;32.23;45.58;98749.85;109518;1251;59016;-79
2023/07/05 07:11:06;;;;;;;7.30;6.50;;;;;;;32.23;45.25;98745.34;109544;1252;59074;-79
2023/07/05 07:13:33;;;;;;;7.60;6.50;;;;;;;32.25;45.43;98747.17;109517;1251;66100;-79
2023/07/05 07:16:02;;;;;;;7.90;6.70;;;;;;;32.34;45.67;98741.77;109494;1251;60212;-79
2023/07/05 07:18:28;;;;;;;7.60;6.90;;;;;;;32.47;45.16;98738.35;109462;1251;63870;-78
2023/07/05 07:20:56;;;;;;;7.00;6.30;;;;;;;32.47;44.81;98738.44;109457;1251;58934;-79
2023/07/05 07:23:22;;;;;;;8.10;6.40;;;;;;;32.48;45.17;98738.25;109513;1251;58972;-79
2023/07/05 07:26:05;;;;;;;7.40;6.40;;;;;;;32.53;44.97;98740.34;109529;1251;66984;-79
2023/07/05 07:28:32;;;;;;;6.90;6.30;;;;;;;32.53;44.61;98738.16;109521;1251;60127;-78
2023/07/05 07:31:08;;;;;;;6.60;5.90;;;;;;;32.45;44.75;98739.88;109575;1251;62529;-79
2023/07/05 07:33:35;;;;;;;6.40;5.90;;;;;;;32.48;44.84;98737.70;109485;1251;59097;-79
2023/07/05 07:36:13;;;;;;;10.80;7.10;;;;;;;32.33;44.88;98735.21;109513;1251;58936;-79
2023/07/05 07:38:40;;;;;;;11.20;7.30;;;;;;;32.02;45.06;98731.77;109448;1251;66099;-78
2023/07/05 07:41:24;;;;;;;8.10;6.70;;;;;;;31.76;45.59;98732.71;109538;1251;58974;-78
2023/07/05 07:43:59;;;;;;;6.40;5.80;;;;;;;31.36;46.08;98728.65;109489;1251;64122;-79
2023/07/05 07:46:27;;;;;;;8.40;6.40;;;;;;;30.96;46.27;98727.67;109422;1251;59212;-79
2023/07/05 07:48:56;;;;;;;9.00;7.20;;;;;;;30.64;46.47;98728.43;109534;1251;58905;-78
2023/07/05 07:51:26;;;;;;;7.60;6.30;;;;;;;30.43;47.18;98725.71;109552;1251;66098;-80
2023/07/05 07:53:52;;;;;;;;;;;;;;;30.27;47.32;98718.40;109550;1251;60312;-78
2023/07/05 07:56:23;;;;;;;7.80;6.20;;;;;;;30.10;47.55;98718.56;109547;1251;64078;-78
2023/07/05 07:58:51;;;;;;;8.70;6.20;;;;;;;30.10;48.19;98719.55;109402;1251;59035;-79
2023/07/05 08:01:22;;;;;;;6.90;6.00;;;;;;;30.15;49.28;98721.70;109482;1251;58890;-78
2023/07/05 08:03:49;;;;;;;7.30;6.20;;;;;;;30.21;49.22;98724.41;109550;1251;65759;-78
2023/07/05 08:06:16;;;;;;;7.50;6.50;;;;;;;30.26;49.51;98725.38;109567;1251;59016;-78
2023/07/05 08:08:43;;;;;;;7.00;6.30;;;;;;;30.23;49.22;98725.02;109514;1251;64077;-78
2023/07/05 08:11:10;;;;;;;6.70;6.10;;;;;;;30.19;49.56;98722.82;109552;1251;59289;-78
2023/07/05 08:13:40;;;;;;;13.80;6.70;;;;;;;30.20;49.42;98722.67;109517;1251;59264;-78
2023/07/05 08:16:08;;;;;;;7.20;5.80;;;;;;;30.13;48.85;98719.24;109477;1251;73426;-78
2023/07/05 08:18:34;;;;;;;10.40;6.90;;;;;;;30.03;49.03;98722.23;109494;1251;59055;-78
2023/07/05 08:21:02;;;;;;;12.90;7.70;;;;;;;30.02;49.27;98720.99;109276;1251;64329;-78
2023/07/05 08:23:29;;;;;;;6.40;5.70;;;;;;;30.06;49.66;98723.20;109163;1251;58989;-77
2023/07/05 08:25:55;;;;;;;7.00;6.00;;;;;;;30.13;49.17;98724.91;109471;1251;58964;-78
2023/07/05 08:28:24;;;;;;;7.00;5.60;;;;;;;30.10;48.40;98725.84;109565;1251;64737;-78
2023/07/05 08:30:53;;;;;;;7.40;5.80;;;;;;;30.08;48.46;98724.11;109566;1251;60061;-78
2023/07/05 08:33:24;;;;;;;9.40;6.70;;;;;;;30.14;48.37;98720.42;109325;1251;62990;-78
2023/07/05 08:36:13;;;;;;;7.50;5.90;;;;;;;30.20;48.78;98723.09;109512;1251;58974;-78
2023/07/05 08:38:51;;;;;;;7.10;6.10;;;;;;;30.21;48.14;98720.72;109376;1251;59096;-78
2023/07/05 08:41:52;;;;;;;7.60;5.60;;;;;;;30.19;48.41;98719.67;109433;1251;65912;-78
2023/07/05 08:44:27;;;;;;;8.40;6.70;;;;;;;30.23;48.78;98713.59;109526;1251;59025;-78
2023/07/05 08:46:59;;;;;;;7.10;6.10;;;;;;;30.27;49.29;98714.38;109482;1251;63216;-78
2023/07/05 08:49:44;;;;;;;7.30;6.10;;;;;;;30.36;49.27;98711.31;109526;1251;59037;-78
2023/07/05 08:52:21;;;;;;;11.70;6.00;;;;;;;30.36;49.06;98708.35;109567;1251;59120;-79
2023/07/05 08:54:52;;;;;;;9.90;5.90;;;;;;;30.40;49.64;98709.72;109569;1251;65809;-79
2023/07/05 08:57:25;;;;;;;25.50;7.80;;;;;;;30.55;49.06;98712.76;109529;1251;59873;-78
2023/07/05 09:00:01;;;;;;;8.90;6.00;;;;;;;30.55;47.45;98709.79;109374;1251;62796;-77
2023/07/05 09:02:27;;;;;;;9.00;6.00;;;;;;;30.43;46.99;98706.92;109494;1251;59003;-79
2023/07/05 09:04:57;;;;;;;6.70;5.80;;;;;;;30.38;46.51;98706.80;109513;1251;59028;-77
2023/07/05 09:07:43;;;;;;;11.90;5.80;;;;;;;30.40;47.12;98701.02;109554;1251;66038;-77
2023/07/05 09:10:21;;;;;;;8.90;5.90;;;;;;;30.53;46.88;98700.61;109574;1251;60245;-77
2023/07/05 09:13:06;;;;;;;8.20;6.00;;;;;;;30.56;45.62;98703.64;109520;1251;64118;-78
2023/07/05 09:15:41;;;;;;;9.40;5.70;;;;;;;30.62;45.86;98696.90;109497;1251;59017;-78
2023/07/05 09:18:24;;;;;;;11.10;6.40;;;;;;;30.73;45.45;98689.27;109518;1251;59037;-79
2023/07/05 09:21:03;;;;;;;6.60;5.60;;;;;;;30.78;45.41;98687.82;109402;1251;67015;-79
2023/07/05 09:23:37;;;;;;;7.60;6.40;;;;;;;30.87;45.22;98685.77;109576;1251;61279;-79
2023/07/05 09:26:14;;;;;;;53.50;13.80;;;;;;;30.91;44.88;98688.27;109490;1251;63767;-79
2023/07/05 09:28:54;;;;;;;8.90;5.40;;;;;;;30.96;44.69;98679.92;109521;1251;58954;-77
2023/07/05 09:31:23;;;;;;;16.30;13.30;;;;;;;31.02;44.16;98676.52;109575;1251;58926;-76
2023/07/05 09:34:17;;;;;;;13.60;11.30;;;;;;;31.01;43.95;98680.30;109515;1251;65809;-77
2023/07/05 09:36:45;;;;;;;21.20;14.80;;;;;;;31.06;44.15;98684.04;109450;1251;60795;-77
2023/07/05 09:39:27;;;;;;;7.70;6.70;;;;;;;31.15;44.15;98678.26;109380;1251;147461;-76
2023/07/05 09:41:57;;;;;;;15.60;8.20;;;;;;;31.30;44.19;98677.02;109368;1251;59022;-77
2023/07/05 09:44:23;;;;;;;6.70;5.10;;;;;;;31.38;43.36;98674.73;109517;1251;59024;-77
2023/07/05 09:46:50;;;;;;;11.00;6.30;;;;;;;31.36;43.03;98672.85;109511;1251;65960;-76
2023/07/05 09:49:19;;;;;;;9.90;8.00;;;;;;;31.35;42.39;98672.46;109500;1251;58988;-77
2023/07/05 09:51:46;;;;;;;6.70;6.10;;;;;;;31.26;42.45;98675.04;109495;1251;63728;-76
2023/07/05 09:54:31;;;;;;;6.80;5.70;;;;;;;31.26;42.52;98675.03;109466;1251;59197;-76
2023/07/05 09:57:01;;;;;;;7.00;5.00;;;;;;;31.33;42.36;98667.84;109181;1251;58997;-77
2023/07/05 09:59:28;;;;;;;5.40;4.90;;;;;;;31.38;42.16;98665.09;109507;1251;66075;-76
2023/07/05 10:02:12;;;;;;;6.70;6.00;;;;;;;31.36;42.30;98663.45;109541;1251;60619;-77
2023/07/05 10:04:48;;;;;;;9.20;6.10;;;;;;;31.47;41.82;98665.60;109494;1251;63781;-77
2023/07/05 10:07:24;;;;;;;6.00;5.40;;;;;;;31.57;41.81;98658.56;109500;1251;58977;-76
2023/07/05 10:09:57;;;;;;;5.70;4.80;;;;;;;31.81;42.10;98657.57;109357;1251;59497;-77
2023/07/05 10:12:36;;;;;;;7.90;7.20;;;;;;;32.10;41.78;98656.98;109482;1251;64837;-76
2023/07/05 10:15:24;;;;;;;6.20;5.60;;;;;;;32.28;41.12;98653.91;109545;1251;60043;-77
2023/07/05 10:17:53;;;;;;;8.10;5.80;;;;;;;32.45;40.73;98654.39;109526;1251;64157;-77
2023/07/05 10:20:24;;;;;;;6.10;4.80;;;;;;;32.53;40.90;98648.63;109333;1251;58970;-77
2023/07/05 10:23:22;;;;;;;6.70;5.80;;;;;;;32.56;40.48;98648.77;109492;1251;58994;-77
2023/07/05 10:25:49;;;;;;;4.80;4.40;;;;;;;32.61;39.39;98648.56;109518;1251;65066;-77
2023/07/05 10:28:20;;;;;;;6.10;4.70;;;;;;;32.47;38.87;98650.02;109516;1251;60179;-77
2023/07/05 10:30:55;;;;;;;5.30;4.70;;;;;;;32.21;38.66;98651.14;109460;1251;63786;-77
2023/07/05 10:33:25;;;;;;;6.00;4.90;;;;;;;31.88;38.49;98652.69;109504;1251;58948;-76
2023/07/05 10:36:07;;;;;;;5.10;4.60;;;;;;;31.78;38.65;98652.66;109439;1251;59078;-76
2023/07/05 10:38:47;;;;;;;5.30;4.50;;;;;;;31.88;38.57;98646.12;109497;1251;64560;-76
2023/07/05 10:41:19;;;;;;;5.20;4.70;;;;;;;32.01;38.66;98641.57;109387;1251;60146;-76
2023/07/05 10:43:59;;;;;;;5.30;4.40;;;;;;;32.17;38.62;98642.76;109515;1251;64987;-76
2023/07/05 10:46:26;;;;;;;6.50;5.00;;;;;;;32.36;38.65;98639.23;109485;1251;59916;-76
2023/07/05 10:48:55;;;;;;;8.90;5.80;;;;;;;32.47;38.77;98636.63;109573;1251;59042;-76
2023/07/05 10:51:27;;;;;;;7.10;5.30;;;;;;;32.53;39.27;98630.69;109520;1251;65860;-76
2023/07/05 10:54:14;;;;;;;5.30;4.70;;;;;;;32.63;38.11;98628.45;109193;1251;59444;-76
2023/07/05 10:56:43;;;;;;;6.70;4.40;;;;;;;32.60;37.63;98626.04;109502;1251;62664;-76
2023/07/05 10:59:36;;;;;;;5.70;4.60;;;;;;;32.58;37.40;98624.35;109514;1251;58996;-75
2023/07/05 11:02:11;;;;;;;4.50;3.90;;;;;;;32.64;37.75;98621.67;109580;1251;59187;-76
2023/07/05 11:04:43;;;;;;;4.50;4.00;;;;;;;32.70;37.83;98622.91;109506;1251;64833;-76
2023/07/05 11:07:12;;;;;;;4.40;4.00;;;;;;;32.51;37.74;98624.08;109488;1251;59066;-75
2023/07/05 11:09:40;;;;;;;5.70;3.90;;;;;;;32.36;37.73;98625.45;109544;1251;62921;-76
2023/07/05 11:12:29;;;;;;;7.30;4.90;;;;;;;32.48;38.16;98618.95;109434;1251;59229;-77
2023/07/05 11:14:58;;;;;;;4.60;4.20;;;;;;;32.89;38.00;98617.42;109531;1251;58987;-77
2023/07/05 11:17:32;;;;;;;5.70;4.10;;;;;;;33.24;37.35;98614.70;109479;1251;66010;-76
2023/07/05 11:19:59;;;;;;;5.10;4.30;;;;;;;33.49;37.28;98614.25;109469;1251;60269;-76
2023/07/05 11:22:39;;;;;;;5.10;4.70;;;;;;;33.69;36.93;98611.69;109494;1251;62840;-77
2023/07/05 11:25:15;;;;;;;5.50;4.70;;;;;;;33.76;36.49;98611.97;109509;1251;59786;-77
2023/07/05 11:27:49;;;;;;;5.40;4.50;;;;;;;33.65;34.95;98606.85;109495;1251;59224;-76
2023/07/05 11:30:45;;;;;;;5.40;4.70;;;;;;;33.52;35.21;98602.56;109484;1251;66062;-76
2023/07/05 11:33:16;;;;;;;6.40;4.20;;;;;;;33.69;35.23;98602.02;109497;1251;59348;-76